createdAt,value
2022-12-17T00:02:28.902Z,12.53
2022-12-17T00:05:18.075Z,12.90
2022-12-17T00:08:04.370Z,12.50
2022-12-17T00:10:50.481Z,12.50
2022-12-17T00:13:37.848Z,12.20
2022-12-17T00:16:25.036Z,13.53
2022-12-17T00:19:11.401Z,14.30
2022-12-17T00:22:10.292Z,14.10
2022-12-17T00:24:56.351Z,15.67
2022-12-17T00:27:42.459Z,15.13
2022-12-17T00:30:28.487Z,15.87
2022-12-17T00:33:14.580Z,15.80
2022-12-17T00:36:00.529Z,16.30
2022-12-17T00:38:47.792Z,15.90
2022-12-17T00:41:33.997Z,16.87
2022-12-17T00:44:19.786Z,17.10
2022-12-17T00:47:06.111Z,16.93
2022-12-17T00:49:51.932Z,16.97
2022-12-17T00:52:37.936Z,18.47
2022-12-17T00:55:21.947Z,18.00
2022-12-17T00:58:11.357Z,18.63
2022-12-17T01:00:57.070Z,18.63
2022-12-17T01:03:42.930Z,19.73
2022-12-17T01:06:28.869Z,18.60
2022-12-17T01:09:15.102Z,20.60
2022-12-17T01:12:02.772Z,19.37
2022-12-17T01:14:48.851Z,20.20
2022-12-17T01:17:35.137Z,19.73
2022-12-17T01:20:21.255Z,18.13
2022-12-17T01:23:07.338Z,19.03
2022-12-17T01:25:53.190Z,19.13
2022-12-17T01:28:46.297Z,17.80
2022-12-17T01:31:34.938Z,17.40
2022-12-17T01:34:21.419Z,16.43
2022-12-17T01:37:07.452Z,17.43
2022-12-17T01:39:53.699Z,17.37
2022-12-17T01:42:48.177Z,17.70
2022-12-17T01:45:35.828Z,17.87
2022-12-17T01:48:22.353Z,18.17
2022-12-17T01:51:08.935Z,15.97
2022-12-17T01:53:55.477Z,16.33
2022-12-17T01:56:42.418Z,16.77
2022-12-17T01:59:28.642Z,15.87
2022-12-17T02:02:16.096Z,15.53
2022-12-17T02:05:02.135Z,14.93
2022-12-17T02:07:53.876Z,14.50
2022-12-17T02:10:42.484Z,14.43
2022-12-17T02:13:30.882Z,15.23
2022-12-17T02:16:18.282Z,14.17
2022-12-17T02:19:08.302Z,14.67
2022-12-17T02:21:59.714Z,14.47
2022-12-17T02:24:48.235Z,14.30
2022-12-17T02:27:35.683Z,13.13
2022-12-17T02:30:25.294Z,15.10
2022-12-17T02:33:07.513Z,13.80
2022-12-17T02:35:54.718Z,14.77
2022-12-17T02:38:43.315Z,14.33
2022-12-17T02:41:29.294Z,14.83
2022-12-17T02:44:16.845Z,14.33
2022-12-17T02:47:03.139Z,14.37
2022-12-17T02:49:48.985Z,14.17
2022-12-17T02:52:50.188Z,15.57
2022-12-17T02:55:36.121Z,14.50
2022-12-17T02:58:22.159Z,15.03
2022-12-17T03:01:09.633Z,14.70
2022-12-17T03:03:55.880Z,15.40
2022-12-17T03:06:41.779Z,15.40
2022-12-17T03:09:27.120Z,15.40
2022-12-17T03:12:13.125Z,16.00
2022-12-17T03:14:58.946Z,14.97
2022-12-17T03:17:46.168Z,15.97
2022-12-17T03:20:31.987Z,15.97
2022-12-17T03:23:20.928Z,16.87
2022-12-17T03:26:06.888Z,17.30
2022-12-17T03:28:52.797Z,16.23
2022-12-17T03:31:38.861Z,15.80
2022-12-17T03:34:26.445Z,15.90
2022-12-17T03:37:12.375Z,16.83
2022-12-17T03:39:58.235Z,17.27
2022-12-17T03:42:44.308Z,17.17
2022-12-17T03:45:30.464Z,17.57
2022-12-17T03:48:23.360Z,17.67
2022-12-17T03:51:10.811Z,17.57
2022-12-17T03:53:56.667Z,17.70
2022-12-17T03:56:42.933Z,19.00
2022-12-17T03:59:28.867Z,17.73
2022-12-17T04:02:15.151Z,18.37
2022-12-17T04:05:01.263Z,18.63
2022-12-17T04:07:49.049Z,17.93
2022-12-17T04:10:35.008Z,19.07
2022-12-17T04:13:21.399Z,18.33
2022-12-17T04:16:07.225Z,17.53
2022-12-17T04:18:53.113Z,20.00
2022-12-17T04:21:38.984Z,18.10
2022-12-17T04:24:26.379Z,18.30
2022-12-17T04:27:12.457Z,19.53
2022-12-17T04:29:58.835Z,18.83
2022-12-17T04:32:44.690Z,18.43
2022-12-17T04:35:30.495Z,19.70
2022-12-17T04:38:30.879Z,19.33
2022-12-17T04:41:17.984Z,21.33
2022-12-17T04:44:04.119Z,19.83
2022-12-17T04:46:50.209Z,19.23
2022-12-17T04:49:35.963Z,21.40
2022-12-17T04:52:22.202Z,20.50
2022-12-17T04:55:08.059Z,18.93
2022-12-17T04:57:55.636Z,20.90
2022-12-17T05:00:41.716Z,20.13
2022-12-17T05:03:29.144Z,20.23
2022-12-17T05:06:15.348Z,20.10
2022-12-17T05:09:06.557Z,22.23
2022-12-17T05:11:52.680Z,19.90
2022-12-17T05:14:39.734Z,20.73
2022-12-17T05:17:25.782Z,22.77
2022-12-17T05:20:11.890Z,23.20
2022-12-17T05:22:57.742Z,23.00
2022-12-17T05:25:43.992Z,21.33
2022-12-17T05:28:29.740Z,22.70
2022-12-17T05:31:17.147Z,21.53
2022-12-17T05:34:03.070Z,23.23
2022-12-17T05:36:49.198Z,22.07
2022-12-17T05:39:43.625Z,22.27
2022-12-17T05:42:29.558Z,22.30
2022-12-17T05:45:15.558Z,21.93
2022-12-17T05:48:03.350Z,24.80
2022-12-17T05:50:49.449Z,22.10
2022-12-17T05:53:35.121Z,23.80
2022-12-17T05:56:21.480Z,23.13
2022-12-17T05:59:07.161Z,23.00
2022-12-17T06:01:53.353Z,22.83
2022-12-17T06:04:40.037Z,22.60
2022-12-17T06:07:25.950Z,23.60
2022-12-17T06:10:12.034Z,23.63
2022-12-17T06:12:58.037Z,22.63
2022-12-17T06:15:43.965Z,24.10
2022-12-17T06:18:41.222Z,22.50
2022-12-17T06:21:28.181Z,23.70
2022-12-17T06:24:14.062Z,23.97
2022-12-17T06:26:59.922Z,23.57
2022-12-17T06:29:46.050Z,22.27
2022-12-17T06:32:32.040Z,24.00
2022-12-17T06:35:17.935Z,23.43
2022-12-17T06:38:05.272Z,24.90
2022-12-17T06:40:51.048Z,24.40
2022-12-17T06:43:37.315Z,25.33
2022-12-17T06:46:23.371Z,25.47
2022-12-17T06:49:09.244Z,25.23
2022-12-17T06:51:51.537Z,26.17
2022-12-17T06:54:38.881Z,24.10
2022-12-17T06:57:24.854Z,26.60
2022-12-17T07:00:11.066Z,25.87
2022-12-17T07:02:56.991Z,26.17
2022-12-17T07:05:43.364Z,26.30
2022-12-17T07:08:29.423Z,26.77
2022-12-17T07:11:18.280Z,25.27
2022-12-17T07:14:04.337Z,24.73
2022-12-17T07:16:50.427Z,25.77
2022-12-17T07:19:36.178Z,26.10
2022-12-17T07:22:22.249Z,24.77
2022-12-17T07:25:16.816Z,25.80
2022-12-17T07:28:11.531Z,25.67
2022-12-17T07:30:57.430Z,26.60
2022-12-17T07:33:43.480Z,27.20
2022-12-17T07:36:29.631Z,25.83
2022-12-17T07:39:15.414Z,26.73
2022-12-17T07:42:01.562Z,26.70
2022-12-17T07:44:48.847Z,26.43
2022-12-17T07:47:34.916Z,26.83
2022-12-17T07:50:20.902Z,26.77
2022-12-17T07:53:06.620Z,27.67
2022-12-17T07:55:52.671Z,25.17
2022-12-17T07:58:38.479Z,26.37
2022-12-17T08:01:26.218Z,27.97
2022-12-17T08:04:12.306Z,25.47
2022-12-17T08:07:02.847Z,27.60
2022-12-17T08:09:51.480Z,27.27
2022-12-17T08:12:37.243Z,25.13
2022-12-17T08:15:23.572Z,26.83
2022-12-17T08:18:10.787Z,24.87
2022-12-17T08:20:56.579Z,25.33
2022-12-17T08:23:42.459Z,25.97
2022-12-17T08:26:28.423Z,27.00
2022-12-17T08:29:14.762Z,27.20
2022-12-17T08:32:00.994Z,26.83
2022-12-17T08:34:48.419Z,28.23
2022-12-17T08:37:34.264Z,27.50
2022-12-17T08:40:20.402Z,26.37
2022-12-17T08:43:06.687Z,28.27
2022-12-17T08:45:52.757Z,27.40
2022-12-17T08:48:38.793Z,28.17
2022-12-17T08:51:26.028Z,28.73
2022-12-17T08:54:12.240Z,28.37
2022-12-17T08:56:58.459Z,28.60
2022-12-17T08:59:46.967Z,29.50
2022-12-17T09:02:35.989Z,29.50
2022-12-17T09:05:22.139Z,29.17
2022-12-17T09:08:09.459Z,30.47
2022-12-17T09:10:55.417Z,29.90
2022-12-17T09:13:41.099Z,29.43
2022-12-17T09:16:27.448Z,30.33
2022-12-17T09:19:13.460Z,28.07
2022-12-17T09:21:59.460Z,31.10
2022-12-17T09:24:46.812Z,30.97
2022-12-17T09:27:32.920Z,30.00
2022-12-17T09:30:19.073Z,32.43
2022-12-17T09:33:05.062Z,32.00
2022-12-17T09:35:51.044Z,30.43
2022-12-17T09:38:37.067Z,32.50
2022-12-17T09:41:27.145Z,31.87
2022-12-17T09:44:14.662Z,32.43
2022-12-17T09:47:02.234Z,33.40
2022-12-17T09:49:48.771Z,31.07
2022-12-17T09:52:37.705Z,30.73
2022-12-17T09:55:28.049Z,32.33
2022-12-17T09:58:15.359Z,33.30
2022-12-17T10:01:01.835Z,32.23
2022-12-17T10:03:47.621Z,33.83
2022-12-17T10:06:36.551Z,33.87
2022-12-17T10:09:22.844Z,32.03
2022-12-17T10:12:09.553Z,33.17
2022-12-17T10:14:57.243Z,33.23
2022-12-17T10:17:44.461Z,33.33
2022-12-17T10:20:33.838Z,33.43
2022-12-17T10:23:20.494Z,32.33
2022-12-17T10:26:09.597Z,33.63
2022-12-17T10:28:55.825Z,33.23
2022-12-17T10:31:43.411Z,32.70
2022-12-17T10:34:32.030Z,33.73
2022-12-17T10:37:18.066Z,30.87
2022-12-17T10:40:11.993Z,31.97
2022-12-17T10:42:58.262Z,31.80
2022-12-17T10:45:45.456Z,30.00
2022-12-17T10:48:39.783Z,30.27
2022-12-17T10:51:25.778Z,31.87
2022-12-17T10:54:11.690Z,29.93
2022-12-17T10:57:06.667Z,30.97
2022-12-17T10:59:55.179Z,30.93
2022-12-17T11:02:43.309Z,30.07
2022-12-17T11:05:33.675Z,30.93
2022-12-17T11:08:19.702Z,30.60
2022-12-17T11:11:05.840Z,29.60
2022-12-17T11:13:52.169Z,28.67
2022-12-17T11:17:02.944Z,28.30
2022-12-17T11:19:54.516Z,28.97
2022-12-17T11:22:43.963Z,29.00
2022-12-17T11:25:36.777Z,28.80
2022-12-17T11:28:29.808Z,28.70
2022-12-17T11:31:21.375Z,27.53
2022-12-17T11:34:11.969Z,26.40
2022-12-17T11:37:03.307Z,27.03
2022-12-17T11:39:53.152Z,25.43
2022-12-17T11:42:43.386Z,25.93
2022-12-17T11:45:39.473Z,25.90
2022-12-17T11:48:27.304Z,24.43
2022-12-17T11:51:13.598Z,24.13
2022-12-17T11:54:05.625Z,24.83
2022-12-17T11:56:54.802Z,25.23
2022-12-17T11:59:47.930Z,23.03
2022-12-17T12:02:45.000Z,22.63
2022-12-17T12:05:34.723Z,22.97
2022-12-17T12:08:23.754Z,22.63
2022-12-17T12:11:11.472Z,24.03
2022-12-17T12:13:59.776Z,23.30
2022-12-17T12:16:52.658Z,23.53
2022-12-17T12:19:39.601Z,22.47
2022-12-17T12:22:30.625Z,22.77
2022-12-17T12:25:25.917Z,24.37
2022-12-17T12:28:18.367Z,22.50
2022-12-17T12:31:07.488Z,23.70
2022-12-17T12:33:55.138Z,21.07
2022-12-17T12:36:41.337Z,24.60
2022-12-17T12:39:30.175Z,22.70
2022-12-17T12:42:17.459Z,21.63
2022-12-17T12:45:04.984Z,21.67
2022-12-17T12:47:55.015Z,23.10
2022-12-17T12:50:41.979Z,22.80
2022-12-17T12:53:29.288Z,22.00
2022-12-17T12:56:16.906Z,23.13
2022-12-17T12:59:08.446Z,22.80
2022-12-17T13:01:55.346Z,24.07
2022-12-17T13:04:47.165Z,23.83
2022-12-17T13:07:25.497Z,23.37
2022-12-17T13:09:54.380Z,23.53
2022-12-17T13:12:28.147Z,24.43
2022-12-17T13:14:58.214Z,25.07
2022-12-17T13:17:30.857Z,25.43
2022-12-17T13:20:04.889Z,25.17
2022-12-17T13:22:33.730Z,24.50
2022-12-17T13:25:16.677Z,23.80
2022-12-17T13:27:45.282Z,23.93
2022-12-17T13:30:21.432Z,25.13
2022-12-17T13:32:50.714Z,22.00
2022-12-17T13:35:22.429Z,23.90
2022-12-17T13:37:54.082Z,23.43
2022-12-17T13:40:25.573Z,26.33
2022-12-17T13:42:53.991Z,24.97
2022-12-17T13:45:23.744Z,25.87
2022-12-17T13:47:54.909Z,26.47
2022-12-17T13:50:33.758Z,26.50
2022-12-17T13:53:10.195Z,26.93
2022-12-17T13:55:39.806Z,27.27
2022-12-17T13:58:20.896Z,28.30
2022-12-17T14:00:49.292Z,28.47
2022-12-17T14:03:22.736Z,26.57
2022-12-17T14:06:03.994Z,27.60
2022-12-17T14:08:33.384Z,27.77
2022-12-17T14:11:15.908Z,27.53
2022-12-17T14:13:44.508Z,28.83
2022-12-17T14:16:13.101Z,28.07
2022-12-17T14:18:41.830Z,28.33
2022-12-17T14:21:11.619Z,26.43
2022-12-17T14:23:40.181Z,27.30
2022-12-17T14:26:08.627Z,27.57
2022-12-17T14:28:37.736Z,27.23
2022-12-17T14:34:02.157Z,27.43
2022-12-17T14:36:32.030Z,27.87
2022-12-17T14:39:01.013Z,28.60
2022-12-17T14:41:47.353Z,27.23
2022-12-17T14:44:21.503Z,27.57
2022-12-17T14:46:50.263Z,26.73
2022-12-17T14:49:19.439Z,28.17
2022-12-17T14:51:49.456Z,27.87
2022-12-17T14:54:22.165Z,29.53
2022-12-17T14:56:51.033Z,27.87
2022-12-17T14:59:29.530Z,28.40
2022-12-17T15:02:01.584Z,28.80
2022-12-17T15:04:31.218Z,29.00
2022-12-17T15:07:04.961Z,30.17
2022-12-17T15:09:37.738Z,29.83
2022-12-17T15:12:08.080Z,29.93
2022-12-17T15:14:36.554Z,29.63
2022-12-17T15:17:06.072Z,30.60
2022-12-17T15:19:34.684Z,31.83
2022-12-17T15:22:06.087Z,33.40
2022-12-17T15:24:34.600Z,31.90
2022-12-17T15:27:03.205Z,34.30
2022-12-17T15:29:32.058Z,32.97
2022-12-17T15:32:01.105Z,34.90
2022-12-17T15:34:29.788Z,33.93
2022-12-17T15:36:58.492Z,35.23
2022-12-17T15:39:28.515Z,35.57
2022-12-17T15:42:15.818Z,35.60
2022-12-17T15:44:44.642Z,36.50
2022-12-17T15:47:13.672Z,36.73
2022-12-17T15:49:43.952Z,37.13
2022-12-17T15:52:15.275Z,37.40
2022-12-17T15:54:49.526Z,36.57
2022-12-17T15:57:18.981Z,37.87
2022-12-17T15:59:52.470Z,38.87
2022-12-17T16:02:23.573Z,38.70
2022-12-17T16:04:53.909Z,38.57
2022-12-17T16:07:24.870Z,37.20
2022-12-17T16:10:03.156Z,40.20
2022-12-17T16:12:33.805Z,38.37
2022-12-17T16:15:02.897Z,38.07
2022-12-17T16:17:32.354Z,36.97
2022-12-17T16:20:01.673Z,38.23
2022-12-17T16:22:33.668Z,37.83
2022-12-17T16:25:07.805Z,38.40
2022-12-17T16:27:40.219Z,37.27
2022-12-17T16:30:15.272Z,37.37
2022-12-17T16:32:44.856Z,36.43
2022-12-17T16:35:15.853Z,37.60
2022-12-17T16:37:47.233Z,37.07
2022-12-17T16:40:17.827Z,38.10
2022-12-17T16:42:48.776Z,37.87
2022-12-17T16:45:25.681Z,38.60
2022-12-17T16:47:54.499Z,36.27
2022-12-17T16:50:23.292Z,36.77
2022-12-17T16:52:54.301Z,36.80
2022-12-17T16:55:24.538Z,37.93
2022-12-17T16:57:55.773Z,37.57
2022-12-17T17:00:25.024Z,37.80
2022-12-17T17:02:54.054Z,37.77
2022-12-17T17:05:23.144Z,38.70
2022-12-17T17:07:53.445Z,36.80
2022-12-17T17:10:23.305Z,37.83
2022-12-17T17:12:58.194Z,36.80
2022-12-17T17:15:30.397Z,36.00
2022-12-17T17:18:04.538Z,39.20
2022-12-17T17:20:35.734Z,37.70
2022-12-17T17:23:04.795Z,37.73
2022-12-17T17:25:54.285Z,38.70
2022-12-17T17:28:24.049Z,38.67
2022-12-17T17:30:52.944Z,37.47
2022-12-17T17:33:21.620Z,36.97
2022-12-17T17:35:50.409Z,38.20
2022-12-17T17:38:19.098Z,38.57
2022-12-17T17:40:47.561Z,39.63
2022-12-17T17:43:16.310Z,38.13
2022-12-17T17:46:04.564Z,39.37
2022-12-17T17:48:35.738Z,38.87
2022-12-17T17:51:05.058Z,38.93
2022-12-17T17:53:33.739Z,37.93
2022-12-17T17:56:05.719Z,40.20
2022-12-17T17:58:34.780Z,38.57
2022-12-17T18:01:15.977Z,40.30
2022-12-17T18:03:47.332Z,39.00
2022-12-17T18:06:16.421Z,39.80
2022-12-17T18:08:45.220Z,40.23
2022-12-17T18:11:22.921Z,40.23
2022-12-17T18:14:13.050Z,40.50
2022-12-17T18:16:43.301Z,39.80
2022-12-17T18:19:12.358Z,40.00
2022-12-17T18:21:41.008Z,39.67
2022-12-17T18:24:12.336Z,39.77
2022-12-17T18:26:42.864Z,38.63
2022-12-17T18:29:12.311Z,41.03
2022-12-17T18:31:50.002Z,40.80
2022-12-17T18:34:22.945Z,40.00
2022-12-17T18:36:52.168Z,38.03
2022-12-17T18:39:21.674Z,39.73
2022-12-17T18:42:07.943Z,39.23
2022-12-17T18:44:38.532Z,38.90
2022-12-17T18:47:09.405Z,39.20
2022-12-17T18:49:39.902Z,37.27
2022-12-17T18:52:14.826Z,37.97
2022-12-17T18:54:45.865Z,40.27
2022-12-17T18:57:21.658Z,41.77
2022-12-17T18:59:57.710Z,40.03
2022-12-17T19:02:27.957Z,40.50
2022-12-17T19:05:01.324Z,40.93
2022-12-17T19:07:30.530Z,40.33
2022-12-17T19:10:02.669Z,40.03
2022-12-17T19:12:31.970Z,40.20
2022-12-17T19:15:02.476Z,40.80
2022-12-17T19:17:40.693Z,39.43
2022-12-17T19:20:13.387Z,39.30
2022-12-17T19:22:42.358Z,41.37
2022-12-17T19:25:15.593Z,41.87
2022-12-17T19:27:53.581Z,43.00
2022-12-17T19:30:25.728Z,42.47
2022-12-17T19:32:54.649Z,43.07
2022-12-17T19:35:24.687Z,42.90
2022-12-17T19:37:56.232Z,41.20
2022-12-17T19:40:27.614Z,40.73
2022-12-17T19:43:01.199Z,40.30
2022-12-17T19:45:30.160Z,39.17
2022-12-17T19:48:00.501Z,39.53
2022-12-17T19:50:42.658Z,40.87
2022-12-17T19:53:11.818Z,39.40
2022-12-17T19:55:45.002Z,40.97
2022-12-17T19:58:14.188Z,39.33
2022-12-17T20:00:45.252Z,38.83
2022-12-17T20:03:15.724Z,39.53
2022-12-17T20:05:57.143Z,38.10
2022-12-17T20:08:29.275Z,36.67
2022-12-17T20:10:58.331Z,38.93
2022-12-17T20:13:31.314Z,37.20
2022-12-17T20:16:26.985Z,38.73
2022-12-17T20:19:01.845Z,35.77
2022-12-17T20:21:32.489Z,38.13
2022-12-17T20:24:01.580Z,36.30
2022-12-17T20:26:35.069Z,37.17
2022-12-17T20:29:07.536Z,36.97
2022-12-17T20:31:37.273Z,37.77
2022-12-17T20:34:06.119Z,37.87
2022-12-17T20:36:36.130Z,37.27
2022-12-17T20:39:04.719Z,36.73
2022-12-17T20:41:33.325Z,37.07
2022-12-17T20:44:04.363Z,37.27
2022-12-17T20:46:33.028Z,38.43
2022-12-17T20:49:04.208Z,37.07
2022-12-17T20:51:33.288Z,38.43
2022-12-17T20:54:03.406Z,37.63
2022-12-17T20:56:32.736Z,37.80
2022-12-17T20:59:03.046Z,37.23
2022-12-17T21:01:33.466Z,39.13
2022-12-17T21:04:02.347Z,37.40
2022-12-17T21:06:32.612Z,38.67
2022-12-17T21:09:01.126Z,39.03
2022-12-17T21:11:31.598Z,37.77
2022-12-17T21:14:00.835Z,42.27
2022-12-17T21:16:33.929Z,38.63
2022-12-17T21:19:09.597Z,36.97
2022-12-17T21:21:39.065Z,37.40
2022-12-17T21:24:10.456Z,36.70
2022-12-17T21:26:43.154Z,36.23
2022-12-17T21:29:15.479Z,36.77
2022-12-17T21:31:44.920Z,37.93
2022-12-17T21:34:14.074Z,36.37
2022-12-17T21:36:42.713Z,35.80
2022-12-17T21:39:12.631Z,36.80
2022-12-17T21:41:44.619Z,35.83
2022-12-17T21:44:14.078Z,34.40
2022-12-17T21:46:47.387Z,33.63
2022-12-17T21:49:19.425Z,35.13
2022-12-17T21:51:50.670Z,35.27
2022-12-17T21:54:20.273Z,34.17
2022-12-17T21:56:53.375Z,34.73
2022-12-17T21:59:22.070Z,37.17
2022-12-17T22:01:51.161Z,35.50
2022-12-17T22:04:22.666Z,34.60
2022-12-17T22:06:59.585Z,34.47
2022-12-17T22:09:45.217Z,34.13
2022-12-17T22:12:52.297Z,35.30
2022-12-17T22:15:21.100Z,33.90
2022-12-17T22:17:51.370Z,34.90
2022-12-17T22:20:19.858Z,34.67
2022-12-17T22:22:49.100Z,35.03
2022-12-17T22:25:18.554Z,37.23
2022-12-17T22:27:49.531Z,36.23
2022-12-17T22:30:41.106Z,35.87
2022-12-17T22:33:26.312Z,34.77
2022-12-17T22:36:52.322Z,34.27
2022-12-17T22:43:17.421Z,33.60
2022-12-17T22:44:37.654Z,35.90
2022-12-17T22:44:54.124Z,34.33
2022-12-17T22:47:24.981Z,36.33
2022-12-17T22:49:56.060Z,37.80
2022-12-17T22:52:25.351Z,37.20
2022-12-17T22:54:54.448Z,36.70
2022-12-17T22:57:37.719Z,35.63
2022-12-17T23:00:15.018Z,35.83
2022-12-17T23:02:45.150Z,35.27
2022-12-17T23:05:16.949Z,34.30
2022-12-17T23:07:45.730Z,33.10
2022-12-17T23:10:57.784Z,34.73
2022-12-17T23:13:23.947Z,33.23
2022-12-17T23:16:00.975Z,32.97
2022-12-17T23:18:32.906Z,31.20
2022-12-17T23:21:10.451Z,32.83
2022-12-17T23:23:39.888Z,33.30
2022-12-17T23:26:09.393Z,32.27
2022-12-17T23:28:40.856Z,32.30
2022-12-17T23:31:11.534Z,32.77
2022-12-17T23:33:42.736Z,32.73
2022-12-17T23:36:11.890Z,32.07
2022-12-17T23:38:40.754Z,32.27
2022-12-17T23:41:13.320Z,31.90
2022-12-17T23:43:44.844Z,34.70
2022-12-17T23:46:17.797Z,31.23
2022-12-17T23:48:49.847Z,31.67
2022-12-17T23:51:24.491Z,31.37
2022-12-17T23:54:00.440Z,32.80
2022-12-17T23:56:31.896Z,33.33
2022-12-17T23:59:23.520Z,32.97
